CheckWX is a tool to help pilots better visualize weather data.  It is not intended as a substitute for an official pre-flight weather briefing.

07:16:45 UTC

PADQ METAR
Kodiak Airport
Kodiak, Alaska, USA
Current

24 mins ago

PADQ 180653Z 16006KT 10SM FEW019 BKN026 OVC032 15/12 A2945 RMK AO2 SLP972 T01500117
Observed
Sep-18 @ 06:53 UTC
Wind
  • 160° at 6 KTS
Visibility
10 SM
Flight Rules
MVFR
Cloud Levels
  • Few at 1,900' AGL
  • Broken at 2,600' AGL
  • Overcast at 3,200' AGL
Temperature
15°C / 59°F
Dewpoint
12°C / 54°F
Humidity
82%
Altimeter
29.45" Hg
Pressure
997.32 hPa
Previous

44 mins ago

PADQ 180633Z 15009KT 10SM BKN028 OVC038 15/12 A2944 RMK AO2 T01500117
Observed
Sep-18 @ 06:33 UTC
Wind
  • 150° at 9 KTS
Visibility
10 SM
Flight Rules
MVFR
Cloud Levels
  • Broken at 2,800' AGL
  • Overcast at 3,800' AGL
Temperature
15°C / 59°F
Dewpoint
12°C / 54°F
Humidity
82%
Altimeter
29.44" Hg
Pressure
996.92 hPa
Previous

1 hour ago

PADQ 180553Z 17008KT 10SM FEW033 SCT046 SCT060 15/11 A2946 RMK AO2 SLP976 60011 T01500111 10150 20128 56035
Observed
Sep-18 @ 05:53 UTC
Wind
  • 170° at 8 KTS
Visibility
10 SM
Flight Rules
VFR
Cloud Levels
  • Few at 3,300' AGL
  • Scattered at 4,600' AGL
  • Scattered at 6,000' AGL
Temperature
15°C / 59°F
Dewpoint
11°C / 52°F
Humidity
77%
Altimeter
29.46" Hg
Pressure
997.62 hPa